NCAR-RAP Real-Time Weather Data

Output produced by METARs form (17 September 2019  17:05 UTC)
found at http://weather.rap.ucar.edu/surface/
 
KCON 171451Z AUTO 18/09 A3015 RMK AO2 SLP210 T01830089 50007 PWINO $
KCON 171351Z AUTO 33008KT 10SM CLR 16/08 A3015 RMK AO2 SLP210 T01610083 $
KCON 171251Z AUTO 34006KT 10SM CLR 13/08 A3014 RMK AO2 SLP206 T01330083 $
KCON 171151Z AUTO 00000KT 10SM CLR 09/07 A3013 RMK AO2 SLP203 T00940072 10094 20039 53013 $
KCON 171051Z AUTO 00000KT 10SM CLR 04/03 A3012 RMK AO2 SLP202 T00440033 $
KCON 170951Z AUTO 00000KT 10SM CLR 05/03 A3009 RMK AO2 SLP191 T00500033 $
KCON 170851Z AUTO 00000KT 10SM CLR 05/04 A3009 RMK AO2 SLP189 T00500039 52001 $
KCON 170751Z AUTO 00000KT 10SM CLR 06/05 A3008 RMK AO2 SLP187 T00610050 $
KCON 170651Z AUTO 00000KT 10SM CLR 07/05 A3009 RMK AO2 SLP190 T00670050 $
KCON 170551Z AUTO 00000KT 10SM CLR 07/06 A3008 RMK AO2 SLP188 T00670056 10156 20061 51003 $
KCON 170451Z AUTO 00000KT 10SM CLR 08/06 A3008 RMK AO2 SLP187 T00780061 402110072 $
KCON 170351Z AUTO 00000KT 10SM CLR 08/07 A3008 RMK AO2 SLP186 T00830067 $
KCON 170251Z AUTO 29005KT 10SM CLR 11/08 A3007 RMK AO2 SLP185 T01060078 51009 $
KCON 170051Z AUTO 32003KT 10SM CLR 13/08 A3006 RMK AO2 SLP179 T01280078 $
KCON 162351Z AUTO 36003KT 10SM SCT065 16/07 A3005 RMK AO2 SLP175 T01560072 10211 20150 53013
KCON 162251Z AUTO 35008KT 10SM BKN065 18/07 A3004 RMK AO2 SLP171 T01780067
KCON 162151Z AUTO 33008KT 10SM BKN060 20/07 A3002 RMK AO2 SLP164 T02000067
KCON 162051Z AUTO 32009KT 10SM FEW060 20/07 A3001 RMK AO2 SLP161 T02000067 56006